KLBE/LBE METAR and TAF weather

Enter ICAO airport designator
Station Type Date Time Source
KLBE METAR 2019/11/14 04:15 UTC NOAA

KLBE 140415Z AUTO 00000KT 10SM CLR M05/M07 A3022 RMK AO2


Station Type Date Time Source
KLBE Decoded METAR 2019/11/14 04:15 UTC NOAA

Latrobe / Westmorland, PA, United States (KLBE) 40-17N 079-24W
Nov 13, 2019 - 11:15 PM EST / 2019.11.14 0415 UTC
Wind: Calm:0
Visibility: 10 mile(s):0
Sky conditions: clear
Temperature: 23 F (-5 C)
Dew Point: 19 F (-7 C)
Relative Humidity: 85%
Pressure (altimeter): 30.22 in. Hg (1023 hPa)
ob: KLBE 140415Z AUTO 00000KT 10SM CLR M05/M07 A3022 RMK AO2
cycle: 4

Station Type Date Time Source
KLBE TAF 2019/11/13 18:27 UTC NOAA

TAF KLBE 131725Z 1318/1418 22006KT P6SM BKN200
FM132300 VRB03KT P6SM BKN150
FM141100 19006KT P6SM BKN150

Example: see airport list